Terminal Aerodrome Forecast
Issued by NWS

Home | Current Version | Previous Version | Text Only | Print | Product List | Glossary On
Versions: 1 2 3 4 5 6 7 8 9 10 11 12 13
000
FTUS44 KTSA 181100
TAFRVS
TAF
KRVS 181125Z 1812/1912 00000KT 5SM BR SKC
     FM181500 07006KT P6SM SKC
     FM182000 14006KT P6SM SKC
     FM190100 16002KT P6SM SKC=

USA.gov is the U.S. government's official web portal to all federal, state and local government web resources and services.